X  Sluiten METAR luchtvaart weer gegevens      EHRD Rotterdam The Hague Airport
Temperatuur
16°C Temperatuur
14°C Dauwpunt
88% Vochtigheid



Wind
10 KM/U
6 MPH
3 M/S
5 KTS



270°
West
Huidig weer

Wat bewolking Wat bewolking
Luchtdruk 1011.85 (hPa) - 29.88 (inHg)
Zicht 5 (mijl) - 8 (km)
Vliegveld
Vliegveld code EHRD

Locatie : Rotterdam The Hague Airport
Afstand: 16 (km)

Metar:
EHRD 190725Z AUTO 27005KT 230V310 8000 FEW007/// 16/14 Q1012 BECMG CAVOK

Tijd: 19-05-2024 07:25 CEST